createdAt,value
2018-07-04T00:03:44.595Z,58.15
2018-07-04T00:10:13.004Z,58.80
2018-07-04T00:16:41.582Z,59.23
2018-07-04T00:23:10.909Z,59.72
2018-07-04T00:29:39.572Z,59.85
2018-07-04T00:36:08.307Z,60.77
2018-07-04T00:42:36.902Z,60.83
2018-07-04T00:49:05.381Z,62.01
2018-07-04T00:55:33.949Z,61.19
2018-07-04T01:02:02.471Z,61.77
2018-07-04T01:08:30.849Z,62.30
2018-07-04T01:14:59.315Z,62.62
2018-07-04T01:21:27.736Z,63.71
2018-07-04T01:27:56.382Z,62.61
2018-07-04T01:34:25.199Z,63.96
2018-07-04T01:40:54.181Z,64.56
2018-07-04T01:47:22.592Z,65.49
2018-07-04T01:53:51.843Z,66.56
2018-07-04T02:00:21.287Z,66.79
2018-07-04T02:06:51.013Z,66.93
2018-07-04T02:13:20.003Z,67.97
2018-07-04T02:19:48.917Z,68.38
2018-07-04T02:26:17.699Z,68.61
2018-07-04T02:32:45.982Z,68.62
2018-07-04T02:39:14.715Z,69.33
2018-07-04T02:45:43.181Z,69.75
2018-07-04T02:52:11.653Z,69.70
2018-07-04T02:58:40.263Z,69.37
2018-07-04T03:05:08.848Z,70.75
2018-07-04T03:11:37.287Z,69.76
2018-07-04T03:18:06.157Z,70.61
2018-07-04T03:24:34.737Z,71.74
2018-07-04T03:30:57.352Z,71.62
2018-07-04T03:37:25.859Z,71.33
2018-07-04T03:43:54.419Z,72.59
2018-07-04T03:50:22.907Z,72.40
2018-07-04T03:56:51.680Z,72.09
2018-07-04T04:03:20.875Z,72.23
2018-07-04T04:09:50.273Z,72.11
2018-07-04T04:16:18.891Z,71.52
2018-07-04T04:22:47.681Z,71.52
2018-07-04T04:29:16.265Z,71.03
2018-07-04T04:35:44.875Z,70.79
2018-07-04T04:42:13.351Z,70.44
2018-07-04T04:48:41.910Z,69.69
2018-07-04T04:55:10.301Z,69.49
2018-07-04T05:01:38.752Z,67.96
2018-07-04T05:08:07.482Z,66.47
2018-07-04T05:14:35.774Z,65.58
2018-07-04T05:21:04.773Z,64.97
2018-07-04T05:27:33.253Z,63.44
2018-07-04T05:34:01.544Z,63.52
2018-07-04T05:40:30.187Z,63.40
2018-07-04T05:46:58.471Z,62.68
2018-07-04T05:53:27.039Z,62.19
2018-07-04T05:59:55.639Z,61.25
2018-07-04T06:06:24.329Z,60.69
2018-07-04T06:12:53.227Z,60.72
2018-07-04T06:19:21.909Z,59.19
2018-07-04T06:25:50.819Z,57.65
2018-07-04T06:32:19.448Z,57.89
2018-07-04T06:38:29.153Z,56.85
2018-07-04T06:44:32.791Z,55.52
2018-07-04T06:50:36.593Z,56.97
2018-07-04T06:56:40.113Z,55.79
2018-07-04T07:02:43.666Z,55.29
2018-07-04T07:09:06.090Z,53.46
2018-07-04T07:15:34.662Z,52.66
2018-07-04T07:22:03.317Z,51.69
2018-07-04T07:28:31.810Z,49.63
2018-07-04T07:35:00.700Z,47.44
2018-07-04T07:41:29.307Z,46.99
2018-07-04T07:47:57.782Z,44.65
2018-07-04T07:54:26.568Z,44.58
2018-07-04T08:00:55.335Z,42.79
2018-07-04T08:07:23.964Z,40.57
2018-07-04T08:13:53.267Z,37.65
2018-07-04T08:20:21.877Z,30.85
2018-07-04T08:26:50.663Z,34.09
2018-07-04T08:33:19.200Z,31.21
2018-07-04T08:39:47.658Z,31.36
2018-07-04T08:46:16.173Z,30.21
2018-07-04T08:52:45.324Z,28.55
2018-07-04T08:59:14.009Z,27.91
2018-07-04T09:05:42.956Z,27.02
2018-07-04T09:12:11.448Z,27.89
2018-07-04T09:18:40.136Z,25.75
2018-07-04T09:25:09.040Z,24.87
2018-07-04T09:31:37.542Z,24.63
2018-07-04T09:38:06.334Z,24.62
2018-07-04T09:44:34.705Z,25.03
2018-07-04T09:51:03.463Z,26.42
2018-07-04T09:57:32.112Z,25.62
2018-07-04T10:04:01.374Z,25.00
2018-07-04T10:10:29.970Z,24.02
2018-07-04T10:16:58.575Z,24.71
2018-07-04T10:23:27.213Z,23.44
2018-07-04T10:29:56.029Z,22.89
2018-07-04T10:36:25.010Z,22.05
2018-07-04T10:42:53.714Z,21.93
2018-07-04T10:49:22.331Z,21.84
2018-07-04T10:55:51.447Z,21.57
2018-07-04T11:02:20.244Z,20.25
2018-07-04T11:08:48.860Z,20.71
2018-07-04T11:15:17.273Z,21.30
2018-07-04T11:21:45.951Z,21.62
2018-07-04T11:28:14.490Z,21.33
2018-07-04T11:34:43.135Z,21.07
2018-07-04T11:41:11.487Z,20.43
2018-07-04T11:47:21.635Z,22.16
2018-07-04T11:53:25.285Z,21.50
2018-07-04T11:59:29.020Z,20.59
2018-07-04T12:05:51.500Z,20.10
2018-07-04T12:12:01.814Z,20.43
2018-07-04T12:18:05.461Z,21.08
2018-07-04T12:24:09.178Z,20.97
2018-07-04T12:30:12.701Z,21.93
2018-07-04T12:36:16.250Z,21.44
2018-07-04T12:42:20.496Z,21.48
2018-07-04T12:48:24.634Z,20.07
2018-07-04T12:54:33.484Z,20.37
2018-07-04T13:00:55.871Z,20.50
2018-07-04T13:07:25.433Z,19.92
2018-07-04T13:13:53.833Z,20.72
2018-07-04T13:20:22.724Z,19.81
2018-07-04T13:26:51.606Z,20.27
2018-07-04T13:33:20.289Z,19.36
2018-07-04T13:39:48.890Z,19.29
2018-07-04T13:46:17.584Z,17.37
2018-07-04T13:52:46.805Z,17.80
2018-07-04T13:59:15.327Z,19.79
2018-07-04T14:05:43.960Z,19.52
2018-07-04T14:12:12.551Z,23.05
2018-07-04T14:18:41.159Z,22.65
2018-07-04T14:25:09.838Z,23.09
2018-07-04T14:31:38.443Z,22.28
2018-07-04T14:38:07.063Z,21.38
2018-07-04T14:44:35.842Z,21.34
2018-07-04T14:51:04.412Z,20.15
2018-07-04T14:57:32.946Z,21.56
2018-07-04T15:04:01.741Z,21.12
2018-07-04T15:10:30.426Z,19.81
2018-07-04T15:16:59.172Z,20.41
2018-07-04T15:23:27.812Z,18.55
2018-07-04T15:29:56.589Z,18.57
2018-07-04T15:36:25.188Z,18.73
2018-07-04T15:42:53.930Z,20.45
2018-07-04T15:49:22.699Z,22.20
2018-07-04T15:55:51.628Z,21.14
2018-07-04T16:02:20.796Z,21.09
2018-07-04T16:08:49.654Z,24.19
2018-07-04T16:16:21.490Z,24.63
2018-07-04T16:22:50.060Z,24.94
2018-07-04T16:29:18.591Z,24.01
2018-07-04T16:35:47.702Z,22.42
2018-07-04T16:42:16.190Z,21.48
2018-07-04T16:48:45.020Z,19.43
2018-07-04T16:55:13.891Z,19.90
2018-07-04T17:01:42.456Z,17.47
2018-07-04T17:08:11.299Z,17.14
2018-07-04T17:14:39.747Z,16.72
2018-07-04T17:21:08.545Z,16.09
2018-07-04T17:27:37.216Z,17.41
2018-07-04T17:34:05.656Z,22.52
2018-07-04T17:40:34.003Z,24.48
2018-07-04T17:47:02.554Z,27.29
2018-07-04T17:53:31.051Z,26.78
2018-07-04T17:59:59.836Z,27.82
2018-07-04T18:06:28.629Z,30.11
2018-07-04T18:12:51.281Z,31.28
2018-07-04T18:19:20.007Z,31.16
2018-07-04T18:25:48.396Z,32.48
2018-07-04T18:32:17.645Z,34.86
2018-07-04T18:38:46.263Z,34.02
2018-07-04T18:45:14.884Z,32.71
2018-07-04T18:51:43.652Z,33.10
2018-07-04T18:58:12.288Z,34.49
2018-07-04T19:04:40.809Z,35.45
2018-07-04T19:11:09.525Z,37.14
2018-07-04T19:17:37.923Z,37.60
2018-07-04T19:37:07.992Z,40.58
2018-07-04T19:43:36.577Z,41.73
2018-07-04T19:50:05.121Z,42.97
2018-07-04T19:56:33.824Z,43.71
2018-07-04T20:03:02.441Z,43.64
2018-07-04T20:09:31.580Z,42.92
2018-07-04T20:16:00.564Z,44.37
2018-07-04T20:22:29.026Z,45.52
2018-07-04T20:28:57.635Z,44.75
2018-07-04T20:35:26.182Z,45.63
2018-07-04T20:41:54.865Z,44.98
2018-07-04T20:48:23.385Z,46.59
2018-07-04T20:54:52.227Z,48.17
2018-07-04T21:01:22.542Z,49.06
2018-07-04T21:07:51.458Z,50.26
2018-07-04T21:14:20.475Z,50.27
2018-07-04T21:20:49.075Z,50.29
2018-07-04T21:27:17.635Z,51.44
2018-07-04T21:33:46.186Z,52.78
2018-07-04T21:40:14.552Z,51.64
2018-07-04T21:46:43.149Z,53.15
2018-07-04T21:53:11.924Z,54.51
2018-07-04T21:59:40.616Z,52.53
2018-07-04T22:06:09.686Z,54.53
2018-07-04T22:12:37.991Z,54.18
2018-07-04T22:19:06.612Z,55.03
2018-07-04T22:25:35.020Z,55.74
2018-07-04T22:32:03.500Z,55.09
2018-07-04T22:38:32.186Z,56.82
2018-07-04T22:45:01.076Z,56.26
2018-07-04T22:51:29.626Z,57.18
2018-07-04T22:57:58.503Z,57.64
2018-07-04T23:04:27.158Z,58.33
2018-07-04T23:10:55.822Z,58.72
2018-07-04T23:17:24.376Z,58.58
2018-07-04T23:23:52.953Z,59.26
2018-07-04T23:30:22.061Z,59.32
2018-07-04T23:36:51.557Z,61.81
2018-07-04T23:43:20.679Z,62.46
2018-07-04T23:49:49.401Z,61.31
2018-07-04T23:56:18.508Z,62.08
